sensor_id;sensor_type;location;lat;lon;timestamp;P1;durP1;ratioP1;P2;durP2;ratioP2
14599;SDS011;7386;45.586;12.854;2023-01-28T00:01:55;9.60;;;6.17;;
14599;SDS011;7386;45.586;12.854;2023-01-28T00:04:25;13.17;;;6.87;;
14599;SDS011;7386;45.586;12.854;2023-01-28T00:06:54;11.37;;;5.60;;
14599;SDS011;7386;45.586;12.854;2023-01-28T00:09:23;10.57;;;5.77;;
14599;SDS011;7386;45.586;12.854;2023-01-28T00:11:51;13.10;;;5.70;;
14599;SDS011;7386;45.586;12.854;2023-01-28T00:14:20;12.40;;;5.70;;
14599;SDS011;7386;45.586;12.854;2023-01-28T00:16:48;9.53;;;5.27;;
14599;SDS011;7386;45.586;12.854;2023-01-28T00:19:16;7.93;;;5.10;;
14599;SDS011;7386;45.586;12.854;2023-01-28T00:21:46;12.90;;;5.83;;
14599;SDS011;7386;45.586;12.854;2023-01-28T00:24:15;8.20;;;5.10;;
14599;SDS011;7386;45.586;12.854;2023-01-28T00:26:43;12.40;;;5.83;;
14599;SDS011;7386;45.586;12.854;2023-01-28T00:29:11;11.27;;;6.70;;
14599;SDS011;7386;45.586;12.854;2023-01-28T00:31:40;11.47;;;7.53;;
14599;SDS011;7386;45.586;12.854;2023-01-28T00:34:08;10.60;;;6.40;;
14599;SDS011;7386;45.586;12.854;2023-01-28T00:36:37;11.43;;;7.60;;
14599;SDS011;7386;45.586;12.854;2023-01-28T00:39:10;10.13;;;7.43;;
14599;SDS011;7386;45.586;12.854;2023-01-28T00:41:40;10.50;;;6.97;;
14599;SDS011;7386;45.586;12.854;2023-01-28T00:44:09;10.67;;;7.23;;
14599;SDS011;7386;45.586;12.854;2023-01-28T00:46:37;11.47;;;8.33;;
14599;SDS011;7386;45.586;12.854;2023-01-28T00:49:07;13.03;;;8.63;;
14599;SDS011;7386;45.586;12.854;2023-01-28T00:51:35;12.50;;;8.80;;
14599;SDS011;7386;45.586;12.854;2023-01-28T00:54:04;12.33;;;8.73;;
14599;SDS011;7386;45.586;12.854;2023-01-28T00:56:34;14.00;;;9.20;;
14599;SDS011;7386;45.586;12.854;2023-01-28T00:59:03;15.20;;;9.77;;
14599;SDS011;7386;45.586;12.854;2023-01-28T01:01:32;13.97;;;9.10;;
14599;SDS011;7386;45.586;12.854;2023-01-28T01:04:00;13.93;;;9.50;;
14599;SDS011;7386;45.586;12.854;2023-01-28T01:06:29;14.97;;;9.70;;
14599;SDS011;7386;45.586;12.854;2023-01-28T01:08:58;14.83;;;9.60;;
14599;SDS011;7386;45.586;12.854;2023-01-28T01:11:27;15.33;;;9.70;;
14599;SDS011;7386;45.586;12.854;2023-01-28T01:13:58;15.67;;;10.67;;
14599;SDS011;7386;45.586;12.854;2023-01-28T01:16:27;18.03;;;11.13;;
14599;SDS011;7386;45.586;12.854;2023-01-28T01:18:57;15.80;;;10.50;;
14599;SDS011;7386;45.586;12.854;2023-01-28T01:21:27;18.60;;;11.90;;
14599;SDS011;7386;45.586;12.854;2023-01-28T01:23:55;18.33;;;12.50;;
14599;SDS011;7386;45.586;12.854;2023-01-28T01:26:24;16.93;;;11.27;;
14599;SDS011;7386;45.586;12.854;2023-01-28T01:28:53;18.03;;;11.97;;
14599;SDS011;7386;45.586;12.854;2023-01-28T01:31:23;19.77;;;12.10;;
14599;SDS011;7386;45.586;12.854;2023-01-28T01:33:51;17.47;;;11.07;;
14599;SDS011;7386;45.586;12.854;2023-01-28T01:36:20;15.80;;;11.13;;
14599;SDS011;7386;45.586;12.854;2023-01-28T01:38:51;15.73;;;10.83;;
14599;SDS011;7386;45.586;12.854;2023-01-28T01:41:25;17.23;;;11.03;;
14599;SDS011;7386;45.586;12.854;2023-01-28T01:43:55;20.10;;;12.33;;
14599;SDS011;7386;45.586;12.854;2023-01-28T01:46:26;17.03;;;11.93;;
14599;SDS011;7386;45.586;12.854;2023-01-28T01:48:59;18.83;;;12.43;;
14599;SDS011;7386;45.586;12.854;2023-01-28T01:51:30;17.67;;;12.13;;
14599;SDS011;7386;45.586;12.854;2023-01-28T01:54:00;18.80;;;12.40;;
14599;SDS011;7386;45.586;12.854;2023-01-28T01:56:30;19.73;;;12.10;;
14599;SDS011;7386;45.586;12.854;2023-01-28T01:58:59;18.33;;;11.67;;
14599;SDS011;7386;45.586;12.854;2023-01-28T02:01:29;20.57;;;12.70;;
14599;SDS011;7386;45.586;12.854;2023-01-28T02:04:00;19.67;;;13.13;;
14599;SDS011;7386;45.586;12.854;2023-01-28T02:06:30;17.73;;;11.60;;
14599;SDS011;7386;45.586;12.854;2023-01-28T02:08:59;17.60;;;12.30;;
14599;SDS011;7386;45.586;12.854;2023-01-28T02:11:29;20.07;;;12.07;;
14599;SDS011;7386;45.586;12.854;2023-01-28T02:13:58;18.47;;;12.37;;
14599;SDS011;7386;45.586;12.854;2023-01-28T02:16:30;21.40;;;12.83;;
14599;SDS011;7386;45.586;12.854;2023-01-28T02:18:59;16.77;;;12.00;;
14599;SDS011;7386;45.586;12.854;2023-01-28T02:21:48;18.80;;;13.17;;
14599;SDS011;7386;45.586;12.854;2023-01-28T02:24:28;16.87;;;11.17;;
14599;SDS011;7386;45.586;12.854;2023-01-28T02:27:07;18.23;;;12.13;;
14599;SDS011;7386;45.586;12.854;2023-01-28T02:29:40;17.77;;;11.60;;
14599;SDS011;7386;45.586;12.854;2023-01-28T02:32:13;19.87;;;12.83;;
14599;SDS011;7386;45.586;12.854;2023-01-28T02:34:43;17.27;;;12.40;;
14599;SDS011;7386;45.586;12.854;2023-01-28T02:37:13;16.53;;;11.60;;
14599;SDS011;7386;45.586;12.854;2023-01-28T02:39:44;17.53;;;12.20;;
14599;SDS011;7386;45.586;12.854;2023-01-28T02:42:16;16.97;;;11.60;;
14599;SDS011;7386;45.586;12.854;2023-01-28T02:44:47;17.17;;;11.90;;
14599;SDS011;7386;45.586;12.854;2023-01-28T02:47:15;17.53;;;12.07;;
14599;SDS011;7386;45.586;12.854;2023-01-28T02:50:02;17.13;;;12.13;;
14599;SDS011;7386;45.586;12.854;2023-01-28T02:52:35;19.03;;;12.80;;
14599;SDS011;7386;45.586;12.854;2023-01-28T02:55:24;16.83;;;12.23;;
14599;SDS011;7386;45.586;12.854;2023-01-28T02:57:56;19.10;;;12.90;;
14599;SDS011;7386;45.586;12.854;2023-01-28T03:00:28;17.87;;;11.97;;
14599;SDS011;7386;45.586;12.854;2023-01-28T03:03:03;16.40;;;11.87;;
14599;SDS011;7386;45.586;12.854;2023-01-28T03:05:34;17.63;;;11.90;;
14599;SDS011;7386;45.586;12.854;2023-01-28T03:08:03;19.00;;;11.60;;
14599;SDS011;7386;45.586;12.854;2023-01-28T03:10:52;16.13;;;11.20;;
14599;SDS011;7386;45.586;12.854;2023-01-28T03:13:40;16.27;;;11.43;;
14599;SDS011;7386;45.586;12.854;2023-01-28T03:16:28;19.50;;;11.13;;
14599;SDS011;7386;45.586;12.854;2023-01-28T03:19:16;16.77;;;11.63;;
14599;SDS011;7386;45.586;12.854;2023-01-28T03:22:02;16.80;;;11.27;;
14599;SDS011;7386;45.586;12.854;2023-01-28T03:24:50;16.40;;;11.40;;
14599;SDS011;7386;45.586;12.854;2023-01-28T03:27:38;18.23;;;11.07;;
14599;SDS011;7386;45.586;12.854;2023-01-28T03:30:28;17.90;;;11.93;;
14599;SDS011;7386;45.586;12.854;2023-01-28T03:33:18;15.23;;;10.97;;
14599;SDS011;7386;45.586;12.854;2023-01-28T03:36:05;14.47;;;10.30;;
14599;SDS011;7386;45.586;12.854;2023-01-28T03:38:51;17.13;;;11.37;;
14599;SDS011;7386;45.586;12.854;2023-01-28T03:41:20;14.77;;;10.13;;
14599;SDS011;7386;45.586;12.854;2023-01-28T03:43:49;14.17;;;10.07;;
14599;SDS011;7386;45.586;12.854;2023-01-28T03:46:18;19.00;;;11.00;;
14599;SDS011;7386;45.586;12.854;2023-01-28T03:48:47;13.77;;;10.00;;
14599;SDS011;7386;45.586;12.854;2023-01-28T03:51:16;16.30;;;11.07;;
14599;SDS011;7386;45.586;12.854;2023-01-28T03:53:44;17.03;;;10.27;;
14599;SDS011;7386;45.586;12.854;2023-01-28T03:56:12;17.77;;;10.80;;
14599;SDS011;7386;45.586;12.854;2023-01-28T03:58:43;15.47;;;10.73;;
14599;SDS011;7386;45.586;12.854;2023-01-28T04:01:22;15.07;;;10.03;;
14599;SDS011;7386;45.586;12.854;2023-01-28T04:03:52;14.33;;;9.97;;
14599;SDS011;7386;45.586;12.854;2023-01-28T04:06:20;14.77;;;9.90;;
14599;SDS011;7386;45.586;12.854;2023-01-28T04:08:49;14.00;;;9.60;;
14599;SDS011;7386;45.586;12.854;2023-01-28T04:11:19;15.83;;;10.27;;
14599;SDS011;7386;45.586;12.854;2023-01-28T04:13:51;15.77;;;9.93;;
14599;SDS011;7386;45.586;12.854;2023-01-28T04:16:19;16.27;;;10.67;;
14599;SDS011;7386;45.586;12.854;2023-01-28T04:18:48;14.33;;;10.37;;
14599;SDS011;7386;45.586;12.854;2023-01-28T04:21:18;15.87;;;10.37;;
14599;SDS011;7386;45.586;12.854;2023-01-28T04:23:46;14.67;;;9.73;;
14599;SDS011;7386;45.586;12.854;2023-01-28T04:26:15;15.03;;;9.80;;
14599;SDS011;7386;45.586;12.854;2023-01-28T04:28:43;13.00;;;9.07;;
14599;SDS011;7386;45.586;12.854;2023-01-28T04:31:12;14.70;;;9.67;;
14599;SDS011;7386;45.586;12.854;2023-01-28T04:33:40;15.77;;;10.67;;
14599;SDS011;7386;45.586;12.854;2023-01-28T04:36:09;15.07;;;9.87;;
14599;SDS011;7386;45.586;12.854;2023-01-28T04:38:38;15.40;;;10.00;;
14599;SDS011;7386;45.586;12.854;2023-01-28T04:41:07;13.00;;;8.77;;
14599;SDS011;7386;45.586;12.854;2023-01-28T04:43:36;13.10;;;8.80;;
14599;SDS011;7386;45.586;12.854;2023-01-28T04:46:04;13.93;;;8.67;;
14599;SDS011;7386;45.586;12.854;2023-01-28T04:48:33;13.23;;;8.87;;
14599;SDS011;7386;45.586;12.854;2023-01-28T04:51:01;13.03;;;8.63;;
14599;SDS011;7386;45.586;12.854;2023-01-28T04:53:30;17.67;;;10.13;;
14599;SDS011;7386;45.586;12.854;2023-01-28T04:56:00;14.47;;;9.43;;
14599;SDS011;7386;45.586;12.854;2023-01-28T04:58:28;13.53;;;9.00;;
14599;SDS011;7386;45.586;12.854;2023-01-28T05:00:57;12.07;;;8.23;;
14599;SDS011;7386;45.586;12.854;2023-01-28T05:03:26;14.23;;;8.60;;
14599;SDS011;7386;45.586;12.854;2023-01-28T05:05:54;12.63;;;8.27;;
14599;SDS011;7386;45.586;12.854;2023-01-28T05:08:23;14.17;;;8.97;;
14599;SDS011;7386;45.586;12.854;2023-01-28T05:10:51;12.07;;;8.13;;
14599;SDS011;7386;45.586;12.854;2023-01-28T05:13:21;12.53;;;8.90;;
14599;SDS011;7386;45.586;12.854;2023-01-28T05:15:50;13.83;;;8.70;;
14599;SDS011;7386;45.586;12.854;2023-01-28T05:18:19;12.73;;;8.50;;
14599;SDS011;7386;45.586;12.854;2023-01-28T05:20:47;15.47;;;8.93;;
14599;SDS011;7386;45.586;12.854;2023-01-28T05:23:16;15.73;;;9.40;;
14599;SDS011;7386;45.586;12.854;2023-01-28T05:25:44;13.63;;;9.40;;
14599;SDS011;7386;45.586;12.854;2023-01-28T05:28:13;13.03;;;8.33;;
14599;SDS011;7386;45.586;12.854;2023-01-28T05:30:42;14.73;;;8.97;;
14599;SDS011;7386;45.586;12.854;2023-01-28T05:33:11;14.07;;;8.97;;
14599;SDS011;7386;45.586;12.854;2023-01-28T05:35:40;13.37;;;8.60;;
14599;SDS011;7386;45.586;12.854;2023-01-28T05:38:09;12.97;;;9.00;;
14599;SDS011;7386;45.586;12.854;2023-01-28T05:40:40;13.37;;;8.60;;
14599;SDS011;7386;45.586;12.854;2023-01-28T05:43:09;14.97;;;9.60;;
14599;SDS011;7386;45.586;12.854;2023-01-28T05:45:37;14.20;;;9.30;;
14599;SDS011;7386;45.586;12.854;2023-01-28T05:48:07;14.90;;;9.27;;
14599;SDS011;7386;45.586;12.854;2023-01-28T05:50:35;15.13;;;9.37;;
14599;SDS011;7386;45.586;12.854;2023-01-28T05:53:04;12.93;;;9.17;;
14599;SDS011;7386;45.586;12.854;2023-01-28T05:55:33;13.33;;;9.27;;
14599;SDS011;7386;45.586;12.854;2023-01-28T05:58:01;13.63;;;8.70;;
14599;SDS011;7386;45.586;12.854;2023-01-28T06:00:30;13.57;;;9.00;;
14599;SDS011;7386;45.586;12.854;2023-01-28T06:02:59;14.83;;;9.17;;
14599;SDS011;7386;45.586;12.854;2023-01-28T06:05:29;14.63;;;9.60;;
14599;SDS011;7386;45.586;12.854;2023-01-28T06:07:57;14.40;;;9.20;;
14599;SDS011;7386;45.586;12.854;2023-01-28T06:10:26;14.37;;;9.07;;
14599;SDS011;7386;45.586;12.854;2023-01-28T06:12:55;14.27;;;9.00;;
14599;SDS011;7386;45.586;12.854;2023-01-28T06:15:23;16.60;;;10.10;;
14599;SDS011;7386;45.586;12.854;2023-01-28T06:17:52;15.97;;;9.70;;
14599;SDS011;7386;45.586;12.854;2023-01-28T06:20:20;12.60;;;8.80;;
14599;SDS011;7386;45.586;12.854;2023-01-28T06:22:50;15.70;;;9.73;;
14599;SDS011;7386;45.586;12.854;2023-01-28T06:25:19;18.30;;;10.23;;
14599;SDS011;7386;45.586;12.854;2023-01-28T06:27:47;15.67;;;10.37;;
14599;SDS011;7386;45.586;12.854;2023-01-28T06:30:16;16.90;;;10.00;;
14599;SDS011;7386;45.586;12.854;2023-01-28T06:32:45;14.63;;;9.47;;
14599;SDS011;7386;45.586;12.854;2023-01-28T06:35:14;14.37;;;9.00;;
14599;SDS011;7386;45.586;12.854;2023-01-28T06:37:42;13.00;;;8.87;;
14599;SDS011;7386;45.586;12.854;2023-01-28T06:40:13;15.10;;;8.73;;
14599;SDS011;7386;45.586;12.854;2023-01-28T06:42:42;14.07;;;9.27;;
14599;SDS011;7386;45.586;12.854;2023-01-28T06:45:10;15.90;;;9.90;;
14599;SDS011;7386;45.586;12.854;2023-01-28T06:47:39;14.60;;;9.43;;
14599;SDS011;7386;45.586;12.854;2023-01-28T06:50:08;15.37;;;9.50;;
14599;SDS011;7386;45.586;12.854;2023-01-28T06:52:36;13.60;;;9.20;;
14599;SDS011;7386;45.586;12.854;2023-01-28T06:55:05;15.20;;;9.93;;
14599;SDS011;7386;45.586;12.854;2023-01-28T06:57:37;13.80;;;9.63;;
14599;SDS011;7386;45.586;12.854;2023-01-28T07:00:06;14.50;;;9.00;;
14599;SDS011;7386;45.586;12.854;2023-01-28T07:02:36;15.77;;;10.03;;
14599;SDS011;7386;45.586;12.854;2023-01-28T07:05:04;16.97;;;10.97;;
14599;SDS011;7386;45.586;12.854;2023-01-28T07:07:33;16.07;;;11.13;;
14599;SDS011;7386;45.586;12.854;2023-01-28T07:10:02;18.33;;;12.27;;
14599;SDS011;7386;45.586;12.854;2023-01-28T07:12:30;23.07;;;14.43;;
14599;SDS011;7386;45.586;12.854;2023-01-28T07:15:00;20.37;;;13.83;;
14599;SDS011;7386;45.586;12.854;2023-01-28T07:17:28;23.50;;;16.27;;
14599;SDS011;7386;45.586;12.854;2023-01-28T07:19:57;22.70;;;15.97;;
14599;SDS011;7386;45.586;12.854;2023-01-28T07:22:25;25.37;;;17.00;;
14599;SDS011;7386;45.586;12.854;2023-01-28T07:24:54;23.30;;;16.03;;
14599;SDS011;7386;45.586;12.854;2023-01-28T07:27:23;21.73;;;15.97;;
14599;SDS011;7386;45.586;12.854;2023-01-28T07:29:52;27.03;;;16.33;;
14599;SDS011;7386;45.586;12.854;2023-01-28T07:32:22;21.60;;;14.93;;
14599;SDS011;7386;45.586;12.854;2023-01-28T07:34:52;26.20;;;17.27;;
14599;SDS011;7386;45.586;12.854;2023-01-28T07:37:20;25.87;;;16.97;;
14599;SDS011;7386;45.586;12.854;2023-01-28T07:39:49;25.20;;;16.90;;
14599;SDS011;7386;45.586;12.854;2023-01-28T07:42:18;27.47;;;18.53;;
14599;SDS011;7386;45.586;12.854;2023-01-28T07:44:46;22.30;;;15.27;;
14599;SDS011;7386;45.586;12.854;2023-01-28T07:47:15;28.33;;;19.20;;
14599;SDS011;7386;45.586;12.854;2023-01-28T07:49:46;26.23;;;17.80;;
14599;SDS011;7386;45.586;12.854;2023-01-28T07:52:14;25.43;;;16.30;;
14599;SDS011;7386;45.586;12.854;2023-01-28T07:54:43;27.33;;;17.20;;
14599;SDS011;7386;45.586;12.854;2023-01-28T07:57:11;25.50;;;17.00;;
14599;SDS011;7386;45.586;12.854;2023-01-28T07:59:39;24.87;;;16.57;;
14599;SDS011;7386;45.586;12.854;2023-01-28T08:02:09;23.30;;;15.93;;
14599;SDS011;7386;45.586;12.854;2023-01-28T08:04:39;23.47;;;15.93;;
14599;SDS011;7386;45.586;12.854;2023-01-28T08:07:09;23.47;;;16.03;;
14599;SDS011;7386;45.586;12.854;2023-01-28T08:09:37;20.17;;;13.60;;
14599;SDS011;7386;45.586;12.854;2023-01-28T08:12:06;24.13;;;16.73;;
14599;SDS011;7386;45.586;12.854;2023-01-28T08:14:34;24.30;;;15.90;;
14599;SDS011;7386;45.586;12.854;2023-01-28T08:17:03;22.63;;;15.50;;
14599;SDS011;7386;45.586;12.854;2023-01-28T08:19:31;19.47;;;13.60;;
14599;SDS011;7386;45.586;12.854;2023-01-28T08:22:00;22.03;;;14.83;;
14599;SDS011;7386;45.586;12.854;2023-01-28T08:24:29;26.80;;;16.20;;
14599;SDS011;7386;45.586;12.854;2023-01-28T08:26:58;23.33;;;16.30;;
14599;SDS011;7386;45.586;12.854;2023-01-28T08:29:26;25.47;;;17.20;;
14599;SDS011;7386;45.586;12.854;2023-01-28T08:31:55;24.43;;;16.17;;
14599;SDS011;7386;45.586;12.854;2023-01-28T08:34:23;23.87;;;16.07;;
14599;SDS011;7386;45.586;12.854;2023-01-28T08:36:51;26.00;;;16.93;;
14599;SDS011;7386;45.586;12.854;2023-01-28T08:39:20;27.87;;;17.07;;
14599;SDS011;7386;45.586;12.854;2023-01-28T08:41:50;24.60;;;16.97;;
14599;SDS011;7386;45.586;12.854;2023-01-28T08:44:18;23.67;;;16.73;;
14599;SDS011;7386;45.586;12.854;2023-01-28T08:46:47;24.77;;;15.43;;
14599;SDS011;7386;45.586;12.854;2023-01-28T08:49:15;24.40;;;14.80;;
14599;SDS011;7386;45.586;12.854;2023-01-28T08:51:43;24.53;;;15.90;;
14599;SDS011;7386;45.586;12.854;2023-01-28T08:54:12;20.67;;;14.33;;
14599;SDS011;7386;45.586;12.854;2023-01-28T08:56:41;21.57;;;13.83;;
14599;SDS011;7386;45.586;12.854;2023-01-28T08:59:11;19.23;;;12.87;;
14599;SDS011;7386;45.586;12.854;2023-01-28T09:01:40;20.23;;;12.87;;
14599;SDS011;7386;45.586;12.854;2023-01-28T09:04:08;21.93;;;13.03;;
14599;SDS011;7386;45.586;12.854;2023-01-28T09:06:37;20.30;;;12.07;;
14599;SDS011;7386;45.586;12.854;2023-01-28T09:09:05;19.00;;;12.10;;
14599;SDS011;7386;45.586;12.854;2023-01-28T09:11:33;20.50;;;11.77;;
14599;SDS011;7386;45.586;12.854;2023-01-28T09:14:02;16.77;;;10.87;;
14599;SDS011;7386;45.586;12.854;2023-01-28T09:16:32;18.07;;;11.10;;
14599;SDS011;7386;45.586;12.854;2023-01-28T09:19:00;18.17;;;10.40;;
14599;SDS011;7386;45.586;12.854;2023-01-28T09:21:29;19.23;;;10.63;;
14599;SDS011;7386;45.586;12.854;2023-01-28T09:23:57;22.67;;;11.73;;
14599;SDS011;7386;45.586;12.854;2023-01-28T09:26:25;18.60;;;11.37;;
14599;SDS011;7386;45.586;12.854;2023-01-28T09:28:54;15.70;;;9.17;;
14599;SDS011;7386;45.586;12.854;2023-01-28T09:31:22;20.20;;;11.30;;
14599;SDS011;7386;45.586;12.854;2023-01-28T09:33:52;18.13;;;11.90;;
14599;SDS011;7386;45.586;12.854;2023-01-28T09:36:22;20.63;;;12.00;;
14599;SDS011;7386;45.586;12.854;2023-01-28T09:38:51;15.93;;;10.13;;
14599;SDS011;7386;45.586;12.854;2023-01-28T09:41:24;16.93;;;11.53;;
14599;SDS011;7386;45.586;12.854;2023-01-28T09:43:56;23.17;;;14.47;;
14599;SDS011;7386;45.586;12.854;2023-01-28T09:46:30;24.57;;;15.77;;
14599;SDS011;7386;45.586;12.854;2023-01-28T09:49:01;22.77;;;13.87;;
14599;SDS011;7386;45.586;12.854;2023-01-28T09:51:31;22.20;;;13.27;;
14599;SDS011;7386;45.586;12.854;2023-01-28T09:54:02;20.63;;;12.47;;
14599;SDS011;7386;45.586;12.854;2023-01-28T09:56:33;18.97;;;12.57;;
14599;SDS011;7386;45.586;12.854;2023-01-28T09:59:06;20.33;;;12.60;;
14599;SDS011;7386;45.586;12.854;2023-01-28T10:01:40;20.20;;;12.23;;
14599;SDS011;7386;45.586;12.854;2023-01-28T10:04:15;17.23;;;10.43;;
14599;SDS011;7386;45.586;12.854;2023-01-28T10:06:51;18.37;;;12.27;;
14599;SDS011;7386;45.586;12.854;2023-01-28T10:09:28;20.27;;;11.73;;
14599;SDS011;7386;45.586;12.854;2023-01-28T10:12:05;18.37;;;11.50;;
14599;SDS011;7386;45.586;12.854;2023-01-28T10:14:43;20.33;;;12.27;;
14599;SDS011;7386;45.586;12.854;2023-01-28T10:17:15;18.93;;;11.87;;
14599;SDS011;7386;45.586;12.854;2023-01-28T10:19:46;18.17;;;11.27;;
14599;SDS011;7386;45.586;12.854;2023-01-28T10:22:17;20.53;;;12.33;;
14599;SDS011;7386;45.586;12.854;2023-01-28T10:24:49;16.53;;;10.60;;
14599;SDS011;7386;45.586;12.854;2023-01-28T10:27:20;18.00;;;10.67;;
14599;SDS011;7386;45.586;12.854;2023-01-28T10:29:49;17.07;;;9.77;;
14599;SDS011;7386;45.586;12.854;2023-01-28T10:32:20;16.33;;;9.67;;
14599;SDS011;7386;45.586;12.854;2023-01-28T10:34:51;15.50;;;9.40;;
14599;SDS011;7386;45.586;12.854;2023-01-28T10:37:20;15.23;;;9.43;;
14599;SDS011;7386;45.586;12.854;2023-01-28T10:39:48;15.30;;;9.63;;
14599;SDS011;7386;45.586;12.854;2023-01-28T10:42:21;16.73;;;9.57;;
14599;SDS011;7386;45.586;12.854;2023-01-28T10:44:54;15.33;;;9.53;;
14599;SDS011;7386;45.586;12.854;2023-01-28T10:47:26;18.13;;;10.50;;
14599;SDS011;7386;45.586;12.854;2023-01-28T10:49:57;17.50;;;10.87;;
14599;SDS011;7386;45.586;12.854;2023-01-28T10:52:26;18.27;;;11.33;;
14599;SDS011;7386;45.586;12.854;2023-01-28T10:54:58;14.63;;;9.63;;
14599;SDS011;7386;45.586;12.854;2023-01-28T10:57:27;18.67;;;11.10;;
14599;SDS011;7386;45.586;12.854;2023-01-28T10:59:55;19.37;;;11.27;;
14599;SDS011;7386;45.586;12.854;2023-01-28T11:02:27;16.33;;;10.40;;
14599;SDS011;7386;45.586;12.854;2023-01-28T11:05:04;18.03;;;11.37;;
14599;SDS011;7386;45.586;12.854;2023-01-28T11:07:33;18.03;;;10.73;;
14599;SDS011;7386;45.586;12.854;2023-01-28T11:10:02;17.30;;;10.37;;
14599;SDS011;7386;45.586;12.854;2023-01-28T11:12:31;15.90;;;9.13;;
14599;SDS011;7386;45.586;12.854;2023-01-28T11:15:00;17.47;;;9.87;;
14599;SDS011;7386;45.586;12.854;2023-01-28T11:17:30;15.83;;;9.70;;
14599;SDS011;7386;45.586;12.854;2023-01-28T11:19:59;15.27;;;10.10;;
14599;SDS011;7386;45.586;12.854;2023-01-28T11:22:31;14.97;;;9.97;;
14599;SDS011;7386;45.586;12.854;2023-01-28T11:25:00;16.17;;;10.27;;
14599;SDS011;7386;45.586;12.854;2023-01-28T11:27:30;15.63;;;10.37;;
14599;SDS011;7386;45.586;12.854;2023-01-28T11:30:00;16.33;;;10.33;;
14599;SDS011;7386;45.586;12.854;2023-01-28T11:32:30;15.50;;;9.73;;
14599;SDS011;7386;45.586;12.854;2023-01-28T11:34:58;20.63;;;10.77;;
14599;SDS011;7386;45.586;12.854;2023-01-28T11:37:27;17.97;;;11.07;;
14599;SDS011;7386;45.586;12.854;2023-01-28T11:40:02;17.50;;;11.10;;
14599;SDS011;7386;45.586;12.854;2023-01-28T11:42:32;15.40;;;9.20;;
14599;SDS011;7386;45.586;12.854;2023-01-28T11:45:00;19.30;;;11.80;;
14599;SDS011;7386;45.586;12.854;2023-01-28T11:47:39;18.20;;;11.23;;
14599;SDS011;7386;45.586;12.854;2023-01-28T11:50:13;18.87;;;11.50;;
14599;SDS011;7386;45.586;12.854;2023-01-28T11:52:50;18.90;;;11.77;;
14599;SDS011;7386;45.586;12.854;2023-01-28T11:55:49;18.37;;;11.77;;
14599;SDS011;7386;45.586;12.854;2023-01-28T11:58:21;17.50;;;11.07;;
14599;SDS011;7386;45.586;12.854;2023-01-28T12:00:56;14.67;;;10.00;;
14599;SDS011;7386;45.586;12.854;2023-01-28T12:03:32;16.60;;;10.87;;
14599;SDS011;7386;45.586;12.854;2023-01-28T12:06:15;16.97;;;10.90;;
14599;SDS011;7386;45.586;12.854;2023-01-28T12:08:47;17.73;;;10.97;;
14599;SDS011;7386;45.586;12.854;2023-01-28T12:11:22;17.10;;;11.20;;
14599;SDS011;7386;45.586;12.854;2023-01-28T12:14:11;18.13;;;11.03;;
14599;SDS011;7386;45.586;12.854;2023-01-28T12:16:46;17.67;;;11.43;;
14599;SDS011;7386;45.586;12.854;2023-01-28T12:22:11;16.83;;;10.27;;
14599;SDS011;7386;45.586;12.854;2023-01-28T12:24:48;19.87;;;12.10;;
14599;SDS011;7386;45.586;12.854;2023-01-28T12:27:27;16.30;;;10.43;;
14599;SDS011;7386;45.586;12.854;2023-01-28T12:29:59;17.97;;;11.07;;
14599;SDS011;7386;45.586;12.854;2023-01-28T12:32:35;17.93;;;10.37;;
14599;SDS011;7386;45.586;12.854;2023-01-28T12:35:21;18.87;;;11.90;;
14599;SDS011;7386;45.586;12.854;2023-01-28T12:37:58;20.20;;;12.27;;
14599;SDS011;7386;45.586;12.854;2023-01-28T12:43:17;19.57;;;11.77;;
14599;SDS011;7386;45.586;12.854;2023-01-28T12:45:48;17.80;;;11.43;;
14599;SDS011;7386;45.586;12.854;2023-01-28T12:48:19;22.40;;;12.83;;
14599;SDS011;7386;45.586;12.854;2023-01-28T12:50:50;20.63;;;12.40;;
14599;SDS011;7386;45.586;12.854;2023-01-28T12:53:22;20.87;;;12.10;;
14599;SDS011;7386;45.586;12.854;2023-01-28T12:55:53;17.47;;;10.93;;
14599;SDS011;7386;45.586;12.854;2023-01-28T12:58:26;19.13;;;11.90;;
14599;SDS011;7386;45.586;12.854;2023-01-28T13:00:59;17.33;;;10.90;;
14599;SDS011;7386;45.586;12.854;2023-01-28T13:03:30;17.60;;;10.43;;
14599;SDS011;7386;45.586;12.854;2023-01-28T13:06:02;19.50;;;12.03;;
14599;SDS011;7386;45.586;12.854;2023-01-28T13:08:32;20.00;;;11.47;;
14599;SDS011;7386;45.586;12.854;2023-01-28T13:11:01;20.97;;;11.70;;
14599;SDS011;7386;45.586;12.854;2023-01-28T13:13:32;20.70;;;13.33;;
14599;SDS011;7386;45.586;12.854;2023-01-28T13:16:02;21.17;;;12.87;;
14599;SDS011;7386;45.586;12.854;2023-01-28T13:18:41;22.77;;;12.30;;
14599;SDS011;7386;45.586;12.854;2023-01-28T13:21:27;21.93;;;12.37;;
14599;SDS011;7386;45.586;12.854;2023-01-28T13:24:16;19.20;;;12.10;;
14599;SDS011;7386;45.586;12.854;2023-01-28T13:26:50;20.43;;;12.47;;
14599;SDS011;7386;45.586;12.854;2023-01-28T13:29:26;22.77;;;13.33;;
14599;SDS011;7386;45.586;12.854;2023-01-28T13:31:56;18.43;;;12.13;;
14599;SDS011;7386;45.586;12.854;2023-01-28T13:34:29;20.23;;;12.13;;
14599;SDS011;7386;45.586;12.854;2023-01-28T13:37:00;20.07;;;12.20;;
14599;SDS011;7386;45.586;12.854;2023-01-28T13:39:31;21.63;;;14.00;;
14599;SDS011;7386;45.586;12.854;2023-01-28T13:42:09;19.27;;;11.90;;
14599;SDS011;7386;45.586;12.854;2023-01-28T13:44:39;21.33;;;12.63;;
14599;SDS011;7386;45.586;12.854;2023-01-28T13:47:14;21.37;;;13.17;;
14599;SDS011;7386;45.586;12.854;2023-01-28T13:49:47;22.07;;;13.57;;
14599;SDS011;7386;45.586;12.854;2023-01-28T13:52:19;22.20;;;13.27;;
14599;SDS011;7386;45.586;12.854;2023-01-28T13:54:52;21.23;;;13.13;;
14599;SDS011;7386;45.586;12.854;2023-01-28T13:57:34;22.30;;;13.83;;
14599;SDS011;7386;45.586;12.854;2023-01-28T14:00:08;19.23;;;12.20;;
14599;SDS011;7386;45.586;12.854;2023-01-28T14:11:13;20.73;;;12.33;;
14599;SDS011;7386;45.586;12.854;2023-01-28T14:16:37;19.83;;;12.10;;
14599;SDS011;7386;45.586;12.854;2023-01-28T14:19:09;22.10;;;13.20;;
14599;SDS011;7386;45.586;12.854;2023-01-28T14:21:39;19.63;;;12.87;;
14599;SDS011;7386;45.586;12.854;2023-01-28T14:24:11;22.03;;;12.20;;
14599;SDS011;7386;45.586;12.854;2023-01-28T14:26:44;19.83;;;12.47;;
14599;SDS011;7386;45.586;12.854;2023-01-28T14:29:16;20.43;;;12.70;;
14599;SDS011;7386;45.586;12.854;2023-01-28T14:31:47;17.77;;;11.07;;
14599;SDS011;7386;45.586;12.854;2023-01-28T14:34:19;23.10;;;13.37;;
14599;SDS011;7386;45.586;12.854;2023-01-28T14:36:49;22.10;;;12.77;;
14599;SDS011;7386;45.586;12.854;2023-01-28T14:39:19;21.00;;;12.87;;
14599;SDS011;7386;45.586;12.854;2023-01-28T14:41:48;23.00;;;14.43;;
14599;SDS011;7386;45.586;12.854;2023-01-28T14:44:22;23.53;;;13.60;;
14599;SDS011;7386;45.586;12.854;2023-01-28T14:46:55;21.03;;;13.70;;
14599;SDS011;7386;45.586;12.854;2023-01-28T14:49:27;21.33;;;13.90;;
14599;SDS011;7386;45.586;12.854;2023-01-28T14:52:12;18.23;;;12.13;;
14599;SDS011;7386;45.586;12.854;2023-01-28T14:54:54;20.27;;;12.47;;
14599;SDS011;7386;45.586;12.854;2023-01-28T14:57:36;18.37;;;11.77;;
14599;SDS011;7386;45.586;12.854;2023-01-28T15:00:15;18.97;;;12.33;;
14599;SDS011;7386;45.586;12.854;2023-01-28T15:02:46;21.13;;;12.00;;
14599;SDS011;7386;45.586;12.854;2023-01-28T15:05:15;20.67;;;12.50;;
14599;SDS011;7386;45.586;12.854;2023-01-28T15:07:44;20.10;;;12.07;;